Time;durP1;ratioP1;P1;durP2;ratioP2;P2;SDS_P1;SDS_P2;PMS_P1;PMS_P2;Temp;Humidity;BMP_temperature;BMP_pressure;BME280_temperature;BME280_humidity;BME280_pressure;Samples;Min_cycle;Max_cycle;Signal;HPM_P1;HPM_P2
2023/07/25 00:00:32;;;;;;;0.00;0.00;;;16.50;99.90;;;;;;5077960;28;20515;-69
2023/07/25 00:02:57;;;;;;;0.00;0.00;;;16.50;99.90;;;;;;5092383;28;20055;-69
2023/07/25 00:05:23;;;;;;;0.00;0.00;;;16.60;99.90;;;;;;5092350;28;20035;-70
2023/07/25 00:07:49;;;;;;;0.00;0.00;;;16.70;99.90;;;;;;5091120;28;20035;-69
2023/07/25 00:10:15;;;;;;;0.00;0.00;;;16.70;99.90;;;;;;5091983;28;20036;-69
2023/07/25 00:12:41;;;;;;;0.00;0.00;;;16.80;99.90;;;;;;5092240;28;20089;-70
2023/07/25 00:15:07;;;;;;;0.00;0.00;;;16.80;99.90;;;;;;5092390;28;20032;-69
2023/07/25 00:17:33;;;;;;;0.00;0.00;;;16.90;99.90;;;;;;5092188;28;20028;-69
2023/07/25 00:19:58;;;;;;;0.00;0.00;;;17.00;99.90;;;;;;5092190;28;20032;-69
2023/07/25 00:22:24;;;;;;;0.00;0.00;;;17.00;99.90;;;;;;5092192;28;20017;-69
2023/07/25 00:24:50;;;;;;;0.00;0.00;;;16.90;99.90;;;;;;5093439;28;20376;-69
2023/07/25 00:27:16;;;;;;;0.00;0.00;;;17.00;99.90;;;;;;5095901;28;20101;-69
2023/07/25 00:29:41;;;;;;;0.00;0.00;;;17.00;99.90;;;;;;5093457;28;20031;-69
2023/07/25 00:32:07;;;;;;;0.00;0.00;;;17.00;99.90;;;;;;5094581;28;20119;-69
2023/07/25 00:34:33;;;;;;;0.00;0.00;;;16.90;99.90;;;;;;5095509;28;20071;-69
2023/07/25 00:36:59;;;;;;;0.00;0.00;;;16.90;99.90;;;;;;5094420;28;20089;-70
2023/07/25 00:39:24;;;;;;;0.00;0.00;;;17.00;99.90;;;;;;5095456;28;20038;-70
2023/07/25 00:41:50;;;;;;;0.00;0.00;;;17.10;99.90;;;;;;5094038;28;20019;-69
2023/07/25 00:44:16;;;;;;;0.00;0.00;;;17.10;99.90;;;;;;5077518;28;20468;-69
2023/07/25 00:46:42;;;;;;;0.00;0.00;;;17.20;99.90;;;;;;5093973;28;20070;-69
2023/07/25 00:49:09;;;;;;;0.08;0.08;;;17.20;99.90;;;;;;5094270;28;20078;-69
2023/07/25 00:51:35;;;;;;;0.00;0.00;;;17.10;99.90;;;;;;5076922;28;20020;-69
2023/07/25 00:54:01;;;;;;;0.00;0.00;;;17.20;99.90;;;;;;5093876;28;20020;-69
2023/07/25 00:56:27;;;;;;;0.00;0.00;;;17.20;99.90;;;;;;5095362;28;20032;-69
2023/07/25 00:58:54;;;;;;;0.00;0.00;;;17.30;99.90;;;;;;5092825;28;20024;-69
2023/07/25 01:01:21;;;;;;;0.00;0.00;;;17.20;99.90;;;;;;5082155;28;20032;-69
2023/07/25 01:03:47;;;;;;;0.00;0.00;;;17.10;99.90;;;;;;5093879;28;20078;-69
2023/07/25 01:06:14;;;;;;;0.00;0.00;;;17.00;99.90;;;;;;5094865;28;20032;-69
2023/07/25 01:08:55;;;;;;;0.68;0.65;;;16.90;99.90;;;;;;5094643;28;20483;-69
2023/07/25 01:11:22;;;;;;;0.00;0.00;;;16.90;99.90;;;;;;5094796;28;20044;-69
2023/07/25 01:13:48;;;;;;;0.00;0.00;;;16.80;99.90;;;;;;5094967;28;20464;-69
2023/07/25 01:16:25;;;;;;;0.10;0.10;;;16.60;99.90;;;;;;5093503;28;20499;-69
2023/07/25 01:18:52;;;;;;;0.40;0.40;;;16.60;99.90;;;;;;5094759;28;20034;-70
2023/07/25 01:21:20;;;;;;;0.08;0.08;;;16.60;99.90;;;;;;5094364;28;20038;-69
2023/07/25 01:23:46;;;;;;;0.00;0.00;;;16.70;99.90;;;;;;5094782;28;20387;-69
2023/07/25 01:26:12;;;;;;;0.00;0.00;;;16.80;99.90;;;;;;5093114;28;20027;-70
2023/07/25 01:28:37;;;;;;;0.22;0.22;;;16.80;99.90;;;;;;5093633;28;20032;-73
2023/07/25 01:31:04;;;;;;;0.00;0.00;;;16.60;99.90;;;;;;5094541;28;20115;-74
2023/07/25 01:33:30;;;;;;;0.00;0.00;;;16.60;99.90;;;;;;5093017;28;20054;-74
2023/07/25 01:35:56;;;;;;;0.05;0.05;;;16.40;99.90;;;;;;5092566;28;20103;-74
2023/07/25 01:38:22;;;;;;;0.10;0.10;;;16.30;99.90;;;;;;5093154;28;20020;-73
2023/07/25 01:40:47;;;;;;;0.10;0.10;;;16.30;99.90;;;;;;5094417;28;20134;-69
2023/07/25 01:43:13;;;;;;;0.00;0.00;;;16.30;99.90;;;;;;5093042;28;20023;-69
2023/07/25 01:45:39;;;;;;;0.00;0.00;;;16.30;99.90;;;;;;5094363;28;20032;-68
2023/07/25 01:48:05;;;;;;;0.03;0.03;;;16.50;99.90;;;;;;5094058;28;20092;-69
2023/07/25 01:50:30;;;;;;;0.03;0.03;;;16.40;99.90;;;;;;5092713;28;20020;-68
2023/07/25 01:52:56;;;;;;;0.00;0.00;;;16.60;99.90;;;;;;5094145;28;20020;-70
2023/07/25 01:55:22;;;;;;;0.03;0.03;;;16.60;99.90;;;;;;5093997;28;20028;-74
2023/07/25 01:57:47;;;;;;;0.00;0.00;;;16.60;99.90;;;;;;5094009;28;20469;-74
2023/07/25 02:00:14;;;;;;;0.08;0.08;;;16.60;99.90;;;;;;5080474;28;20121;-74
2023/07/25 02:02:40;;;;;;;0.10;0.10;;;16.70;99.90;;;;;;5092074;28;20480;-74
2023/07/25 02:05:06;;;;;;;0.00;0.00;;;16.60;99.90;;;;;;5092242;28;20385;-74
2023/07/25 02:07:32;;;;;;;0.10;0.10;;;16.80;99.90;;;;;;5092429;28;20050;-75
2023/07/25 02:09:58;;;;;;;0.00;0.00;;;16.80;99.90;;;;;;5089372;28;20040;-74
2023/07/25 02:12:25;;;;;;;0.00;0.00;;;16.80;99.90;;;;;;5072300;28;20093;-75
2023/07/25 02:14:51;;;;;;;0.00;0.00;;;16.70;99.90;;;;;;5058814;28;20059;-75
2023/07/25 02:17:19;;;;;;;0.00;0.00;;;16.60;99.90;;;;;;5082318;28;20436;-74
2023/07/25 02:19:45;;;;;;;0.00;0.00;;;16.70;99.90;;;;;;5065817;28;20055;-74
2023/07/25 02:22:12;;;;;;;0.00;0.00;;;16.70;99.90;;;;;;5089091;28;20530;-74
2023/07/25 02:24:38;;;;;;;0.00;0.00;;;16.80;99.90;;;;;;5093565;28;20020;-74
2023/07/25 02:27:04;;;;;;;0.00;0.00;;;16.80;99.90;;;;;;5075345;28;20063;-75
2023/07/25 02:29:30;;;;;;;0.05;0.05;;;16.90;99.90;;;;;;5077568;28;20030;-74
2023/07/25 02:31:56;;;;;;;0.00;0.00;;;16.70;99.90;;;;;;5093504;28;20035;-74
2023/07/25 02:34:21;;;;;;;0.10;0.10;;;16.60;99.90;;;;;;5093120;28;20111;-74
2023/07/25 02:36:47;;;;;;;0.15;0.15;;;16.60;99.90;;;;;;5093401;28;20174;-73
2023/07/25 02:39:13;;;;;;;0.10;0.10;;;16.60;99.90;;;;;;5091953;28;20080;-74
2023/07/25 02:41:38;;;;;;;0.00;0.00;;;16.50;99.90;;;;;;5093438;28;20065;-74
2023/07/25 02:44:04;;;;;;;0.20;0.20;;;16.50;99.90;;;;;;5091883;28;20047;-74
2023/07/25 02:46:30;;;;;;;0.00;0.00;;;16.60;99.90;;;;;;5077418;28;20020;-74
2023/07/25 02:48:56;;;;;;;0.00;0.00;;;16.60;99.90;;;;;;5091296;28;20043;-75
2023/07/25 02:51:22;;;;;;;0.08;0.08;;;16.60;99.90;;;;;;5091867;28;20388;-74
2023/07/25 02:53:48;;;;;;;0.00;0.00;;;16.30;99.90;;;;;;5074956;28;20028;-71
2023/07/25 02:56:14;;;;;;;0.00;0.00;;;16.00;99.90;;;;;;5093073;28;20028;-74
2023/07/25 02:58:39;;;;;;;0.10;0.10;;;16.10;99.90;;;;;;5093105;28;20020;-73
2023/07/25 03:01:05;;;;;;;0.30;0.30;;;16.30;99.90;;;;;;5093063;28;20053;-75
2023/07/25 03:03:31;;;;;;;0.00;0.00;;;16.40;99.90;;;;;;5091234;28;20032;-74
2023/07/25 03:05:57;;;;;;;0.00;0.00;;;16.60;99.90;;;;;;5093076;28;20023;-74
2023/07/25 03:08:23;;;;;;;0.00;0.00;;;16.60;99.90;;;;;;5092782;28;20025;-75
2023/07/25 03:10:49;;;;;;;0.03;0.03;;;16.60;99.90;;;;;;5091774;28;20484;-75
2023/07/25 03:13:15;;;;;;;0.00;0.00;;;16.70;99.90;;;;;;5091424;28;20031;-74
2023/07/25 03:15:41;;;;;;;0.10;0.10;;;16.70;99.90;;;;;;5092955;28;20527;-74
2023/07/25 03:18:07;;;;;;;0.00;0.00;;;16.50;99.90;;;;;;5092612;28;20115;-69
2023/07/25 03:20:32;;;;;;;0.00;0.00;;;16.40;99.90;;;;;;5077203;28;20028;-69
2023/07/25 03:22:58;;;;;;;0.00;0.00;;;16.40;99.90;;;;;;5091487;28;20081;-69
2023/07/25 03:25:24;;;;;;;0.00;0.00;;;16.60;99.90;;;;;;5091393;28;20028;-69
2023/07/25 03:27:49;;;;;;;0.00;0.00;;;16.60;99.90;;;;;;5084732;28;20025;-70
2023/07/25 03:30:15;;;;;;;0.10;0.10;;;16.40;99.90;;;;;;5086301;28;20097;-69
2023/07/25 03:32:41;;;;;;;0.00;0.00;;;16.10;99.90;;;;;;5092064;28;20094;-69
2023/07/25 03:35:07;;;;;;;0.00;0.00;;;16.10;99.90;;;;;;5078451;28;20033;-69
2023/07/25 03:37:33;;;;;;;0.00;0.00;;;16.40;99.90;;;;;;5071975;28;20012;-69
2023/07/25 03:39:59;;;;;;;0.10;0.10;;;16.20;99.90;;;;;;5071013;28;20040;-69
2023/07/25 03:42:24;;;;;;;0.00;0.00;;;16.10;99.90;;;;;;5071016;28;20020;-70
2023/07/25 03:44:51;;;;;;;0.00;0.00;;;16.10;99.90;;;;;;5072434;28;20028;-69
2023/07/25 03:47:17;;;;;;;0.10;0.10;;;16.10;99.90;;;;;;5054045;28;20397;-69
2023/07/25 03:49:43;;;;;;;0.10;0.10;;;16.10;99.90;;;;;;5072034;28;20024;-69
2023/07/25 03:52:09;;;;;;;0.38;0.38;;;16.00;99.90;;;;;;5071128;28;20489;-70
2023/07/25 03:54:35;;;;;;;0.00;0.00;;;16.00;99.90;;;;;;5072129;28;20099;-69
2023/07/25 03:57:01;;;;;;;0.00;0.00;;;16.10;99.90;;;;;;5072213;28;20481;-70
2023/07/25 03:59:27;;;;;;;0.00;0.00;;;16.30;99.90;;;;;;5075310;28;20025;-69
2023/07/25 04:01:53;;;;;;;0.00;0.00;;;16.40;99.90;;;;;;5086154;28;20019;-70
2023/07/25 04:04:18;;;;;;;0.00;0.00;;;16.50;99.90;;;;;;5075836;28;20473;-70
2023/07/25 04:06:44;;;;;;;0.08;0.08;;;16.50;99.90;;;;;;5076001;28;20457;-71
2023/07/25 04:09:10;;;;;;;0.03;0.03;;;16.50;99.90;;;;;;5074253;28;20048;-71
2023/07/25 04:11:35;;;;;;;0.00;0.00;;;16.30;99.90;;;;;;5057359;28;20490;-70
2023/07/25 04:14:02;;;;;;;0.00;0.00;;;16.10;99.90;;;;;;5075925;28;20021;-70
2023/07/25 04:16:28;;;;;;;0.00;0.00;;;16.00;99.90;;;;;;5075347;28;20039;-70
2023/07/25 04:18:57;;;;;;;0.00;0.00;;;16.00;99.90;;;;;;5074180;28;20035;-74
2023/07/25 04:21:22;;;;;;;0.00;0.00;;;15.90;99.90;;;;;;5085763;28;20028;-73
2023/07/25 04:23:48;;;;;;;0.00;0.00;;;15.90;99.90;;;;;;5095067;28;20078;-74
2023/07/25 04:26:14;;;;;;;0.00;0.00;;;15.90;99.90;;;;;;5095368;28;20024;-74
2023/07/25 04:28:40;;;;;;;0.00;0.00;;;16.10;99.90;;;;;;5093981;28;20062;-73
2023/07/25 04:31:05;;;;;;;0.00;0.00;;;16.10;99.90;;;;;;5093984;28;20028;-75
2023/07/25 04:33:31;;;;;;;0.00;0.00;;;15.90;99.90;;;;;;5094299;28;20567;-74
2023/07/25 04:35:57;;;;;;;0.05;0.05;;;16.00;99.90;;;;;;5095341;28;20047;-74
2023/07/25 04:38:22;;;;;;;0.00;0.00;;;15.90;99.90;;;;;;5095605;28;20059;-74
2023/07/25 04:40:48;;;;;;;0.00;0.00;;;16.10;99.90;;;;;;5094011;28;20032;-75
2023/07/25 04:43:14;;;;;;;0.00;0.00;;;16.00;99.90;;;;;;5095582;28;20024;-73
2023/07/25 04:45:40;;;;;;;0.00;0.00;;;16.00;99.90;;;;;;5095119;28;20031;-73
2023/07/25 04:48:06;;;;;;;0.00;0.00;;;15.90;99.90;;;;;;5095429;28;20024;-74
2023/07/25 04:50:32;;;;;;;0.03;0.03;;;16.00;99.90;;;;;;5095308;28;20028;-74
2023/07/25 04:52:57;;;;;;;0.00;0.00;;;16.00;99.90;;;;;;5095402;28;20460;-73
2023/07/25 04:55:23;;;;;;;0.52;0.52;;;16.00;99.90;;;;;;5094162;28;20034;-74
2023/07/25 04:57:50;;;;;;;0.00;0.00;;;16.10;99.90;;;;;;5095359;28;20380;-73
2023/07/25 05:00:16;;;;;;;0.00;0.00;;;15.90;99.90;;;;;;5093509;28;20036;-70
2023/07/25 05:02:41;;;;;;;0.00;0.00;;;15.90;99.90;;;;;;5087901;28;20036;-70
2023/07/25 05:05:07;;;;;;;0.00;0.00;;;16.00;99.90;;;;;;5087286;28;20032;-69
2023/07/25 05:07:33;;;;;;;0.10;0.10;;;15.80;99.90;;;;;;5084708;28;20530;-69
2023/07/25 05:09:59;;;;;;;0.00;0.00;;;15.80;99.90;;;;;;5074754;28;20040;-70
2023/07/25 05:12:25;;;;;;;0.00;0.00;;;15.90;99.90;;;;;;5074619;28;20029;-69
2023/07/25 05:14:50;;;;;;;0.10;0.10;;;15.80;99.90;;;;;;5074151;28;20024;-73
2023/07/25 05:17:16;;;;;;;0.00;0.00;;;15.70;99.90;;;;;;5074691;28;20044;-74
2023/07/25 05:19:42;;;;;;;1.17;0.22;;;15.70;99.90;;;;;;5074427;28;20436;-74
2023/07/25 05:22:08;;;;;;;0.05;0.05;;;15.90;99.90;;;;;;5091707;28;20016;-74
2023/07/25 05:24:33;;;;;;;0.00;0.00;;;16.00;99.90;;;;;;5094829;28;20114;-74
2023/07/25 05:26:59;;;;;;;0.10;0.10;;;16.00;99.90;;;;;;5094468;28;20035;-74
2023/07/25 05:29:25;;;;;;;0.00;0.00;;;16.00;99.90;;;;;;5094299;28;20427;-74
2023/07/25 05:31:50;;;;;;;0.00;0.00;;;16.00;99.90;;;;;;5094465;28;20020;-74
2023/07/25 05:34:16;;;;;;;0.00;0.00;;;16.00;99.90;;;;;;5093258;28;20036;-74
2023/07/25 05:36:42;;;;;;;0.00;0.00;;;15.90;99.90;;;;;;5094510;28;20305;-74
2023/07/25 05:39:07;;;;;;;0.00;0.00;;;15.90;99.90;;;;;;5094249;28;20480;-74
2023/07/25 05:41:33;;;;;;;0.00;0.00;;;16.00;99.90;;;;;;5094381;28;20020;-74
2023/07/25 05:43:59;;;;;;;0.00;0.00;;;16.00;99.90;;;;;;5094055;28;20427;-74
2023/07/25 05:46:24;;;;;;;0.45;0.45;;;15.90;99.90;;;;;;5094124;28;20031;-74
2023/07/25 05:48:50;;;;;;;0.00;0.00;;;16.00;99.90;;;;;;5094249;28;20038;-73
2023/07/25 05:51:16;;;;;;;0.00;0.00;;;16.10;99.90;;;;;;5094117;28;20521;-74
2023/07/25 05:53:41;;;;;;;0.10;0.10;;;15.80;99.90;;;;;;5094341;28;20036;-73
2023/07/25 05:56:07;;;;;;;0.20;0.20;;;15.70;99.90;;;;;;5094035;28;20062;-73
2023/07/25 05:58:33;;;;;;;0.08;0.08;;;15.70;99.90;;;;;;5093620;28;20020;-73
2023/07/25 06:00:59;;;;;;;0.30;0.30;;;15.60;99.90;;;;;;5093782;28;20032;-74
2023/07/25 06:03:24;;;;;;;0.10;0.10;;;15.60;99.90;;;;;;5094248;28;20024;-73
2023/07/25 06:05:50;;;;;;;0.00;0.00;;;15.70;99.90;;;;;;5094089;28;20460;-73
2023/07/25 06:08:16;;;;;;;0.10;0.10;;;15.70;99.90;;;;;;5093540;28;20020;-74
2023/07/25 06:10:41;;;;;;;0.10;0.10;;;15.70;99.90;;;;;;5093927;28;20380;-74
2023/07/25 06:13:07;;;;;;;0.00;0.00;;;15.70;99.90;;;;;;5093355;28;20024;-74
2023/07/25 06:15:34;;;;;;;0.10;0.10;;;15.90;99.90;;;;;;5092711;28;20035;-74
2023/07/25 06:18:03;;;;;;;4.68;0.65;;;16.10;99.90;;;;;;5093425;28;20385;-74
2023/07/25 06:20:30;;;;;;;0.43;0.28;;;16.00;99.90;;;;;;5079408;28;20104;-74
2023/07/25 06:22:55;;;;;;;0.13;0.13;;;16.00;99.90;;;;;;5092725;28;20476;-73
2023/07/25 06:25:21;;;;;;;0.52;0.52;;;16.00;99.90;;;;;;5093432;28;20031;-73
2023/07/25 06:27:47;;;;;;;0.00;0.00;;;16.00;99.90;;;;;;5093330;28;20032;-74
2023/07/25 06:30:12;;;;;;;0.75;0.70;;;16.10;99.90;;;;;;5093301;28;20042;-74
2023/07/25 06:32:38;;;;;;;0.47;0.47;;;16.00;99.90;;;;;;5093328;28;20023;-72
2023/07/25 06:35:04;;;;;;;1.65;1.35;;;16.10;99.90;;;;;;5093549;28;20043;-72
2023/07/25 06:37:33;;;;;;;1.15;1.10;;;16.20;99.90;;;;;;5092272;28;20024;-72
2023/07/25 06:40:00;;;;;;;0.63;0.45;;;16.10;99.90;;;;;;5085298;28;20035;-70
2023/07/25 06:42:28;;;;;;;0.00;0.00;;;16.20;99.90;;;;;;5076981;28;20581;-70
2023/07/25 06:44:54;;;;;;;0.00;0.00;;;16.20;99.90;;;;;;5072338;28;20013;-70
2023/07/25 06:47:20;;;;;;;0.00;0.00;;;16.40;99.90;;;;;;5082063;28;20020;-70
2023/07/25 06:49:46;;;;;;;0.05;0.05;;;16.50;99.90;;;;;;5073170;28;20059;-71
2023/07/25 06:52:12;;;;;;;0.00;0.00;;;16.40;99.90;;;;;;5077249;28;20024;-69
2023/07/25 06:54:38;;;;;;;0.13;0.10;;;16.60;99.90;;;;;;5074258;28;20496;-70
2023/07/25 06:57:04;;;;;;;0.17;0.17;;;16.70;99.90;;;;;;5074110;28;20023;-70
2023/07/25 06:59:30;;;;;;;0.00;0.00;;;16.60;99.90;;;;;;5083877;28;20067;-70
2023/07/25 07:01:56;;;;;;;0.00;0.00;;;16.80;99.90;;;;;;5071984;28;20016;-70
2023/07/25 07:04:22;;;;;;;0.35;0.35;;;16.70;99.90;;;;;;5076465;28;20040;-70
2023/07/25 07:06:48;;;;;;;0.00;0.00;;;16.70;99.90;;;;;;5074068;28;20025;-70
2023/07/25 07:09:13;;;;;;;1.80;0.22;;;16.80;99.90;;;;;;5078702;28;20480;-70
2023/07/25 07:11:39;;;;;;;0.00;0.00;;;16.70;99.90;;;;;;5073857;28;20017;-69
2023/07/25 07:14:06;;;;;;;0.10;0.10;;;16.80;99.90;;;;;;5077721;28;20035;-70
2023/07/25 07:16:31;;;;;;;0.00;0.00;;;16.80;99.90;;;;;;5075639;28;20036;-69
2023/07/25 07:18:57;;;;;;;0.00;0.00;;;16.90;99.90;;;;;;5074008;28;20103;-73
2023/07/25 07:21:23;;;;;;;0.10;0.10;;;17.10;99.90;;;;;;5091900;28;20020;-74
2023/07/25 07:23:49;;;;;;;0.00;0.00;;;17.20;99.90;;;;;;5091545;28;20031;-73
2023/07/25 07:26:15;;;;;;;0.03;0.03;;;17.50;99.90;;;;;;5091794;28;20066;-74
2023/07/25 07:28:41;;;;;;;0.00;0.00;;;17.70;99.90;;;;;;5091568;28;20118;-74
2023/07/25 07:31:12;;;;;;;0.00;0.00;;;18.00;99.90;;;;;;5091819;28;20032;-73
2023/07/25 07:33:38;;;;;;;0.22;0.22;;;18.00;99.90;;;;;;5093285;28;20035;-74
2023/07/25 07:36:07;;;;;;;0.00;0.00;;;18.30;99.90;;;;;;5095787;28;20024;-71
2023/07/25 07:38:33;;;;;;;0.00;0.00;;;18.70;99.90;;;;;;5093903;28;20036;-74
2023/07/25 07:40:58;;;;;;;0.00;0.00;;;18.80;99.90;;;;;;5095743;28;20027;-73
2023/07/25 07:43:24;;;;;;;0.00;0.00;;;18.70;99.90;;;;;;5095880;28;20020;-73
2023/07/25 07:45:50;;;;;;;0.05;0.05;;;18.70;99.90;;;;;;5095667;28;20039;-73
2023/07/25 07:48:16;;;;;;;0.00;0.00;;;18.80;99.90;;;;;;5086944;28;20423;-74
2023/07/25 07:50:44;;;;;;;5.28;0.30;;;18.80;99.90;;;;;;5076354;28;20043;-72
2023/07/25 07:53:10;;;;;;;0.00;0.00;;;19.10;99.90;;;;;;5080008;28;20033;-72
2023/07/25 07:55:36;;;;;;;0.08;0.08;;;19.00;99.90;;;;;;5081491;28;20038;-74
2023/07/25 07:58:02;;;;;;;0.20;0.20;;;19.00;99.90;;;;;;5081499;28;20024;-74
2023/07/25 08:00:28;;;;;;;0.98;0.30;;;18.90;99.90;;;;;;5076584;28;20376;-73
2023/07/25 08:02:54;;;;;;;0.38;0.32;;;18.60;99.90;;;;;;5075447;28;20119;-74
2023/07/25 08:05:20;;;;;;;0.00;0.00;;;18.50;99.90;;;;;;5077771;28;20103;-74
2023/07/25 08:07:46;;;;;;;0.00;0.00;;;18.40;99.90;;;;;;5079220;28;20510;-74
2023/07/25 08:10:11;;;;;;;0.00;0.00;;;18.60;99.90;;;;;;5079234;28;20039;-74
2023/07/25 08:12:37;;;;;;;0.00;0.00;;;18.90;99.90;;;;;;5076962;28;20459;-73
2023/07/25 08:15:04;;;;;;;0.10;0.10;;;19.10;99.90;;;;;;5081219;28;20108;-72
2023/07/25 08:17:29;;;;;;;0.00;0.00;;;18.90;99.90;;;;;;5080207;28;20020;-68
2023/07/25 08:19:55;;;;;;;0.15;0.08;;;18.90;99.90;;;;;;5086790;28;20027;-70
2023/07/25 08:22:21;;;;;;;0.00;0.00;;;18.30;99.90;;;;;;5094729;28;20035;-69
2023/07/25 08:24:47;;;;;;;0.00;0.00;;;18.50;99.90;;;;;;5094832;28;20120;-69
2023/07/25 08:27:12;;;;;;;0.03;0.03;;;18.60;99.90;;;;;;5095040;28;20031;-69
2023/07/25 08:29:45;;;;;;;0.85;0.85;;;18.40;99.90;;;;;;5093466;28;20606;-69
2023/07/25 08:32:11;;;;;;;0.28;0.28;;;18.40;99.90;;;;;;5094891;28;20039;-68
2023/07/25 08:34:38;;;;;;;0.00;0.00;;;18.60;99.90;;;;;;5093572;28;20040;-69
2023/07/25 08:37:05;;;;;;;1.00;1.00;;;18.50;99.90;;;;;;5094496;28;20039;-68
2023/07/25 08:39:31;;;;;;;0.10;0.10;;;18.40;99.90;;;;;;5092035;28;20058;-69
2023/07/25 08:41:58;;;;;;;0.00;0.00;;;18.20;99.90;;;;;;5093342;28;20358;-70
2023/07/25 08:44:25;;;;;;;0.00;0.00;;;18.40;99.90;;;;;;5092675;28;20498;-69
2023/07/25 08:46:53;;;;;;;2.08;0.40;;;18.50;99.90;;;;;;5091593;28;20480;-69
2023/07/25 08:49:25;;;;;;;0.00;0.00;;;18.60;99.90;;;;;;5094516;28;20058;-68
2023/07/25 08:51:53;;;;;;;0.00;0.00;;;18.70;99.90;;;;;;5094293;28;20025;-69
2023/07/25 08:54:29;;;;;;;0.55;0.55;;;18.90;99.90;;;;;;5092533;28;20107;-69
2023/07/25 08:56:55;;;;;;;0.00;0.00;;;18.90;99.90;;;;;;5091421;28;20034;-68
2023/07/25 08:59:22;;;;;;;0.00;0.00;;;18.70;99.90;;;;;;5094346;28;20103;-69
2023/07/25 09:01:48;;;;;;;1.55;1.45;;;18.70;99.90;;;;;;5094318;28;20035;-69
2023/07/25 09:04:14;;;;;;;0.10;0.10;;;18.70;99.90;;;;;;5094207;28;20055;-73
2023/07/25 09:06:40;;;;;;;1.45;0.65;;;18.70;99.90;;;;;;5093688;28;20112;-70
2023/07/25 09:09:06;;;;;;;0.17;0.17;;;18.70;99.90;;;;;;5091069;28;20451;-70
2023/07/25 09:11:33;;;;;;;2.05;0.35;;;18.50;99.90;;;;;;5093908;28;20534;-69
2023/07/25 09:14:01;;;;;;;1.08;0.57;;;18.30;99.90;;;;;;5094017;28;20039;-69
2023/07/25 09:16:26;;;;;;;1.13;0.35;;;18.30;99.90;;;;;;5081776;28;20028;-72
2023/07/25 09:18:52;;;;;;;0.10;0.10;;;18.20;99.90;;;;;;5089823;28;20025;-73
2023/07/25 09:21:18;;;;;;;0.47;0.08;;;18.60;99.90;;;;;;5093783;28;20046;-72
2023/07/25 09:23:54;;;;;;;0.63;0.63;;;19.10;99.90;;;;;;5093724;28;20022;-71
2023/07/25 09:26:25;;;;;;;0.20;0.20;;;19.60;99.90;;;;;;5093584;28;20047;-74
2023/07/25 09:28:52;;;;;;;2.90;0.47;;;19.60;99.90;;;;;;5093430;28;20040;-72
2023/07/25 09:31:19;;;;;;;0.60;0.32;;;19.80;99.90;;;;;;5093819;28;20673;-73
2023/07/25 09:33:53;;;;;;;0.00;0.00;;;20.00;99.90;;;;;;5093583;28;20028;-73
2023/07/25 09:36:19;;;;;;;17.00;1.35;;;19.90;99.90;;;;;;5093387;28;20032;-74
2023/07/25 09:38:54;;;;;;;7.97;0.28;;;20.40;99.90;;;;;;5092079;28;20084;-74
2023/07/25 09:41:21;;;;;;;0.00;0.00;;;20.50;99.90;;;;;;5092414;28;20063;-74
2023/07/25 09:43:46;;;;;;;0.00;0.00;;;20.90;99.90;;;;;;5093554;28;20020;-73
2023/07/25 09:46:12;;;;;;;0.10;0.10;;;20.60;99.40;;;;;;5093262;28;20028;-73
2023/07/25 09:48:47;;;;;;;0.55;0.55;;;20.70;99.90;;;;;;5092999;28;20468;-73
2023/07/25 09:51:14;;;;;;;0.00;0.00;;;20.40;99.90;;;;;;5093464;28;20031;-71
2023/07/25 09:53:43;;;;;;;0.05;0.05;;;20.20;98.80;;;;;;5093248;28;20020;-74
2023/07/25 09:56:10;;;;;;;0.35;0.10;;;19.60;99.20;;;;;;5091991;28;20372;-73
2023/07/25 09:58:36;;;;;;;0.10;0.10;;;19.50;99.70;;;;;;5081341;28;20036;-73
2023/07/25 10:01:05;;;;;;;0.00;0.00;;;19.70;99.50;;;;;;5089555;28;20410;-72
2023/07/25 10:03:32;;;;;;;8.35;0.60;;;20.40;98.90;;;;;;5079767;28;20521;-73
2023/07/25 10:05:58;;;;;;;0.00;0.00;;;20.70;97.10;;;;;;5092347;28;20105;-68
2023/07/25 10:08:26;;;;;;;0.10;0.10;;;20.80;97.80;;;;;;5089614;28;20462;-68
2023/07/25 10:10:55;;;;;;;0.20;0.10;;;20.80;97.70;;;;;;5093031;28;20043;-68
2023/07/25 10:13:21;;;;;;;0.32;0.25;;;20.50;98.80;;;;;;5089219;28;20063;-69
2023/07/25 10:15:50;;;;;;;1.13;0.65;;;20.50;97.40;;;;;;5084603;28;20533;-68
2023/07/25 10:18:21;;;;;;;0.00;0.00;;;20.40;99.70;;;;;;5092245;28;20021;-68
2023/07/25 10:20:49;;;;;;;0.00;0.00;;;19.90;99.20;;;;;;5092878;28;20046;-68
2023/07/25 10:23:15;;;;;;;0.45;0.45;;;19.80;99.00;;;;;;5092608;28;20042;-68
2023/07/25 10:25:41;;;;;;;0.38;0.10;;;19.60;98.40;;;;;;5092442;28;20028;-68
2023/07/25 10:28:07;;;;;;;0.00;0.00;;;20.10;99.60;;;;;;5092255;28;20103;-68
2023/07/25 10:30:44;;;;;;;0.00;0.00;;;21.00;99.90;;;;;;5091976;28;20126;-68
2023/07/25 10:33:12;;;;;;;0.20;0.20;;;21.40;98.70;;;;;;5091808;28;20040;-68
2023/07/25 10:35:40;;;;;;;0.10;0.10;;;21.90;96.70;;;;;;5092231;28;20094;-68
2023/07/25 10:38:10;;;;;;;0.03;0.03;;;22.20;96.20;;;;;;5091821;28;20450;-68
2023/07/25 10:40:59;;;;;;;0.10;0.10;;;22.10;96.40;;;;;;5092172;28;20032;-68
2023/07/25 10:43:51;;;;;;;0.47;0.35;;;21.50;97.50;;;;;;5082136;28;20039;-70
2023/07/25 10:46:18;;;;;;;0.17;0.17;;;22.00;97.50;;;;;;5083933;28;20039;-68
2023/07/25 10:48:46;;;;;;;1.50;1.23;;;22.10;96.50;;;;;;5091549;28;20020;-68
2023/07/25 10:51:14;;;;;;;1.98;0.45;;;21.10;97.70;;;;;;5092013;28;20036;-68
2023/07/25 10:53:41;;;;;;;0.10;0.10;;;21.00;98.00;;;;;;5091128;28;20435;-73
2023/07/25 10:56:07;;;;;;;0.10;0.10;;;21.00;98.10;;;;;;5091355;28;20036;-72
2023/07/25 10:58:37;;;;;;;6.13;0.80;;;21.20;98.30;;;;;;5090388;28;20024;-72
2023/07/25 11:01:03;;;;;;;0.10;0.10;;;21.50;96.40;;;;;;5091875;28;20047;-73
2023/07/25 11:03:34;;;;;;;0.20;0.20;;;21.50;96.00;;;;;;5091766;28;20046;-73
2023/07/25 11:06:22;;;;;;;3.63;0.30;;;21.50;95.70;;;;;;5091401;28;20024;-73
2023/07/25 11:08:49;;;;;;;0.00;0.00;;;22.20;95.90;;;;;;5085262;28;20388;-74
2023/07/25 11:11:14;;;;;;;1.52;0.55;;;22.00;95.00;;;;;;5091711;28;20040;-75
2023/07/25 11:13:42;;;;;;;0.00;0.00;;;22.00;94.90;;;;;;5091687;28;20086;-74
2023/07/25 11:16:11;;;;;;;0.10;0.10;;;21.70;94.80;;;;;;5091428;28;20358;-73
2023/07/25 11:18:50;;;;;;;0.00;0.00;;;21.90;95.50;;;;;;5083989;28;20350;-74
2023/07/25 11:21:17;;;;;;;0.00;0.00;;;22.50;94.30;;;;;;5080637;28;20418;-74
2023/07/25 11:23:43;;;;;;;4.07;1.52;;;22.90;95.10;;;;;;5091663;28;20016;-74
2023/07/25 11:26:09;;;;;;;0.82;0.60;;;22.40;94.90;;;;;;5090898;28;20110;-74
2023/07/25 11:28:38;;;;;;;0.03;0.03;;;22.30;94.50;;;;;;5092302;28;20473;-73
2023/07/25 11:31:04;;;;;;;0.00;0.00;;;22.30;94.30;;;;;;5092443;28;20090;-74
2023/07/25 11:33:41;;;;;;;0.25;0.25;;;22.90;95.00;;;;;;5092446;28;20056;-73
2023/07/25 11:36:07;;;;;;;0.00;0.00;;;22.70;93.90;;;;;;5092714;28;20032;-73
2023/07/25 11:38:36;;;;;;;0.10;0.10;;;22.00;94.80;;;;;;5092490;28;20043;-70
2023/07/25 11:41:03;;;;;;;0.10;0.10;;;22.20;95.90;;;;;;5090974;28;20027;-72
2023/07/25 11:43:31;;;;;;;0.22;0.15;;;22.60;96.30;;;;;;5092381;28;20485;-70
2023/07/25 11:45:57;;;;;;;0.10;0.10;;;22.10;95.60;;;;;;5092016;28;20032;-71
2023/07/25 11:48:22;;;;;;;0.13;0.13;;;22.20;95.40;;;;;;5091413;28;20061;-69
2023/07/25 11:50:51;;;;;;;0.00;0.00;;;22.50;94.50;;;;;;5092348;28;20161;-69
2023/07/25 11:53:24;;;;;;;0.10;0.10;;;22.50;95.70;;;;;;5092750;28;20448;-69
2023/07/25 11:55:51;;;;;;;1.13;0.63;;;23.10;94.50;;;;;;5092225;28;20066;-76
2023/07/25 11:58:21;;;;;;;0.20;0.13;;;22.70;94.50;;;;;;5092345;28;20090;-77
2023/07/25 12:00:52;;;;;;;0.00;0.00;;;22.80;94.90;;;;;;5092006;28;20032;-76
2023/07/25 12:03:23;;;;;;;0.00;0.00;;;23.10;94.80;;;;;;5091013;28;20123;-77
2023/07/25 12:05:55;;;;;;;0.30;0.30;;;22.90;94.00;;;;;;5091145;28;20475;-77
2023/07/25 12:08:34;;;;;;;0.10;0.05;;;22.80;94.10;;;;;;5092401;28;20024;-77
2023/07/25 12:11:04;;;;;;;0.15;0.15;;;22.00;94.70;;;;;;5092200;28;20068;-76
2023/07/25 12:13:30;;;;;;;4.07;0.28;;;21.60;95.90;;;;;;5091770;28;20534;-77
2023/07/25 12:15:57;;;;;;;1.05;1.05;;;21.70;97.50;;;;;;5083834;28;20038;-77
2023/07/25 12:18:34;;;;;;;0.10;0.10;;;22.10;95.90;;;;;;5092253;28;20469;-77
2023/07/25 12:21:01;;;;;;;0.80;0.55;;;22.20;95.60;;;;;;5083178;28;20044;-77
2023/07/25 12:23:32;;;;;;;0.00;0.00;;;22.50;94.00;;;;;;5095932;28;20032;-76
2023/07/25 12:26:00;;;;;;;;;;;22.80;93.90;;;;;;5096250;28;20020;-77
2023/07/25 12:28:37;;;;;;;0.13;0.13;;;23.30;93.90;;;;;;5095462;28;19904;-75
2023/07/25 12:31:02;;;;;;;0.17;0.17;;;22.90;93.20;;;;;;5095775;28;20114;-76
2023/07/25 12:33:28;;;;;;;0.00;0.00;;;22.90;93.60;;;;;;5095756;28;20056;-76
2023/07/25 12:35:55;;;;;;;1.17;0.50;;;23.10;94.40;;;;;;5095422;28;20099;-75
2023/07/25 12:38:20;;;;;;;0.00;0.00;;;23.30;92.60;;;;;;5095738;28;20036;-77
2023/07/25 12:40:46;;;;;;;0.03;0.03;;;23.60;93.20;;;;;;5095370;28;20027;-77
2023/07/25 12:43:12;;;;;;;0.20;0.20;;;24.30;92.20;;;;;;5095355;28;20064;-77
2023/07/25 12:45:38;;;;;;;1.25;0.20;;;24.70;92.10;;;;;;5095361;28;20103;-76